createdAt,value
2022-07-26T00:01:17.849Z,53.81
2022-07-26T00:06:50.512Z,53.72
2022-07-26T00:09:18.857Z,53.66
2022-07-26T00:11:47.062Z,53.73
2022-07-26T00:14:15.236Z,53.68
2022-07-26T00:16:44.070Z,53.68
2022-07-26T00:19:12.509Z,53.65
2022-07-26T00:21:41.004Z,53.69
2022-07-26T00:24:10.060Z,53.81
2022-07-26T00:26:38.255Z,53.78
2022-07-26T00:29:06.999Z,53.87
2022-07-26T00:31:35.593Z,53.76
2022-07-26T00:34:03.906Z,53.92
2022-07-26T00:36:32.079Z,54.07
2022-07-26T00:39:00.252Z,54.16
2022-07-26T00:41:28.425Z,54.09
2022-07-26T00:43:59.570Z,54.22
2022-07-26T00:46:28.491Z,54.45
2022-07-26T00:48:56.937Z,54.64
2022-07-26T00:51:25.321Z,54.85
2022-07-26T00:53:53.599Z,54.88
2022-07-26T00:56:22.473Z,55.15
2022-07-26T00:58:50.762Z,55.38
2022-07-26T01:01:19.090Z,55.28
2022-07-26T01:03:52.122Z,55.36
2022-07-26T01:06:26.713Z,55.53
2022-07-26T01:08:55.977Z,55.54
2022-07-26T01:11:24.183Z,55.42
2022-07-26T01:13:52.395Z,55.45
2022-07-26T01:16:20.598Z,55.41
2022-07-26T01:18:48.845Z,55.71
2022-07-26T01:21:17.533Z,55.74
2022-07-26T01:23:45.810Z,55.83
2022-07-26T01:26:14.050Z,55.92
2022-07-26T01:28:42.945Z,56.07
2022-07-26T01:31:11.179Z,56.31
2022-07-26T01:33:39.426Z,56.40
2022-07-26T01:36:08.909Z,56.62
2022-07-26T01:38:37.107Z,57.02
2022-07-26T01:41:05.790Z,56.93
2022-07-26T01:43:34.067Z,56.97
2022-07-26T01:46:03.168Z,57.18
2022-07-26T01:48:32.193Z,57.28
2022-07-26T01:51:01.254Z,57.44
2022-07-26T01:53:29.526Z,57.41
2022-07-26T01:55:57.703Z,57.26
2022-07-26T01:58:25.877Z,57.40
2022-07-26T02:00:54.152Z,57.30
2022-07-26T02:03:22.378Z,57.37
2022-07-26T02:05:50.608Z,57.75
2022-07-26T02:08:20.719Z,57.93
2022-07-26T02:11:00.676Z,57.91
2022-07-26T02:13:40.929Z,58.21
2022-07-26T02:16:12.020Z,58.32
2022-07-26T02:18:40.829Z,58.39
2022-07-26T02:21:10.059Z,58.34
2022-07-26T02:23:39.656Z,58.40
2022-07-26T02:26:10.403Z,58.48
2022-07-26T02:28:38.574Z,58.69
2022-07-26T02:31:06.803Z,58.84
2022-07-26T02:33:34.980Z,58.69
2022-07-26T02:36:03.150Z,58.74
2022-07-26T02:38:31.580Z,58.77
2022-07-26T02:40:59.755Z,58.83
2022-07-26T02:43:27.931Z,58.73
2022-07-26T02:46:01.315Z,58.60
2022-07-26T02:48:31.278Z,58.58
2022-07-26T02:50:59.899Z,58.62
2022-07-26T02:53:28.609Z,58.63
2022-07-26T02:55:56.988Z,58.71
2022-07-26T02:58:27.127Z,58.68
2022-07-26T03:00:55.387Z,58.72
2022-07-26T03:03:23.763Z,58.93
2022-07-26T03:05:51.938Z,58.93
2022-07-26T03:08:20.110Z,58.91
2022-07-26T03:10:48.385Z,59.14
2022-07-26T03:13:16.575Z,59.30
2022-07-26T03:15:45.312Z,59.26
2022-07-26T03:18:13.728Z,59.31
2022-07-26T03:20:41.901Z,59.32
2022-07-26T03:23:10.075Z,59.44
2022-07-26T03:25:39.887Z,59.60
2022-07-26T03:28:08.062Z,59.55
2022-07-26T03:30:36.442Z,59.43
2022-07-26T03:33:11.475Z,59.36
2022-07-26T03:35:39.649Z,59.31
2022-07-26T03:38:08.540Z,59.16
2022-07-26T03:40:36.715Z,58.99
2022-07-26T03:43:04.889Z,58.90
2022-07-26T03:45:33.163Z,58.89
2022-07-26T03:48:01.235Z,58.92
2022-07-26T03:50:29.528Z,59.05
2022-07-26T03:52:58.198Z,58.94
2022-07-26T03:55:44.907Z,58.76
2022-07-26T03:58:13.134Z,58.70
2022-07-26T04:00:41.255Z,58.99
2022-07-26T04:03:09.434Z,58.95
2022-07-26T04:05:38.116Z,58.82
2022-07-26T04:08:06.496Z,58.74
2022-07-26T04:10:34.669Z,58.56
2022-07-26T04:13:02.943Z,58.54
2022-07-26T04:15:31.167Z,58.51
2022-07-26T04:17:59.293Z,58.67
2022-07-26T04:20:27.466Z,58.73
2022-07-26T04:22:55.639Z,58.77
2022-07-26T04:25:23.915Z,58.74
2022-07-26T04:27:52.091Z,58.67
2022-07-26T04:30:20.263Z,58.75
2022-07-26T04:32:48.437Z,58.93
2022-07-26T04:35:16.629Z,59.15
2022-07-26T04:37:45.891Z,59.10
2022-07-26T04:40:21.109Z,59.27
2022-07-26T04:42:51.852Z,59.72
2022-07-26T04:45:21.194Z,59.83
2022-07-26T04:47:50.620Z,59.84
2022-07-26T04:50:20.407Z,59.97
2022-07-26T04:52:51.078Z,60.06
2022-07-26T04:55:19.784Z,59.93
2022-07-26T04:57:48.609Z,59.76
2022-07-26T05:00:25.049Z,60.38
2022-07-26T05:02:58.626Z,60.27
2022-07-26T05:05:29.209Z,59.90
2022-07-26T05:08:00.247Z,59.54
2022-07-26T05:10:35.488Z,59.15
2022-07-26T05:13:05.834Z,58.85
2022-07-26T05:15:37.059Z,58.42
2022-07-26T05:18:08.876Z,58.50
2022-07-26T05:20:39.093Z,58.53
2022-07-26T05:23:08.070Z,58.20
2022-07-26T05:25:36.820Z,58.01
2022-07-26T05:28:05.645Z,57.77
2022-07-26T05:30:33.830Z,57.80
2022-07-26T05:33:02.168Z,57.86
2022-07-26T05:35:30.438Z,57.89
2022-07-26T05:37:58.817Z,58.15
2022-07-26T05:40:27.911Z,57.92
2022-07-26T05:42:56.293Z,57.83
2022-07-26T05:45:24.466Z,57.36
2022-07-26T05:47:53.773Z,57.24
2022-07-26T05:50:22.246Z,57.22
2022-07-26T05:52:50.424Z,57.08
2022-07-26T05:55:18.594Z,56.93
2022-07-26T05:57:49.556Z,56.98
2022-07-26T06:00:18.429Z,56.99
2022-07-26T06:02:46.875Z,57.12
2022-07-26T06:05:16.204Z,57.00
2022-07-26T06:07:44.586Z,57.00
2022-07-26T06:10:12.762Z,56.95
2022-07-26T06:12:40.931Z,56.90
2022-07-26T06:15:15.550Z,56.82
2022-07-26T06:17:44.161Z,57.06
2022-07-26T06:20:12.622Z,56.85
2022-07-26T06:22:40.794Z,57.04
2022-07-26T06:25:09.236Z,57.09
2022-07-26T06:27:37.349Z,57.26
2022-07-26T06:30:08.255Z,57.26
2022-07-26T06:32:36.562Z,57.36
2022-07-26T06:35:05.588Z,57.09
2022-07-26T06:37:39.362Z,57.13
2022-07-26T06:40:09.637Z,56.92
2022-07-26T06:42:38.169Z,56.55
2022-07-26T06:45:07.066Z,56.11
2022-07-26T06:47:35.557Z,56.18
2022-07-26T06:50:05.915Z,55.77
2022-07-26T06:52:34.549Z,56.20
2022-07-26T06:55:04.055Z,55.41
2022-07-26T06:57:32.542Z,55.25
2022-07-26T07:00:00.717Z,55.26
2022-07-26T07:02:28.885Z,55.10
2022-07-26T07:04:57.201Z,54.89
2022-07-26T07:07:25.539Z,54.80
2022-07-26T07:09:56.786Z,54.63
2022-07-26T07:12:24.959Z,54.59
2022-07-26T07:14:53.133Z,54.96
2022-07-26T07:17:21.517Z,54.63
2022-07-26T07:19:50.197Z,54.83
2022-07-26T07:22:18.370Z,54.58
2022-07-26T07:24:46.719Z,54.41
2022-07-26T07:27:16.873Z,54.29
2022-07-26T07:29:45.195Z,53.57
2022-07-26T07:32:18.186Z,52.90
2022-07-26T07:34:48.695Z,52.51
2022-07-26T07:37:18.011Z,52.27
2022-07-26T07:39:50.639Z,52.04
2022-07-26T07:42:19.949Z,52.07
2022-07-26T07:44:50.351Z,51.97
2022-07-26T07:47:18.543Z,51.98
2022-07-26T07:49:46.717Z,51.90
2022-07-26T07:52:15.096Z,51.40
2022-07-26T07:54:43.576Z,51.37
2022-07-26T07:57:12.074Z,51.13
2022-07-26T07:59:43.099Z,51.12
2022-07-26T08:02:13.218Z,51.26
2022-07-26T08:04:41.538Z,50.81
2022-07-26T08:07:09.771Z,50.96
2022-07-26T08:09:38.051Z,50.18
2022-07-26T08:12:11.854Z,50.46
2022-07-26T08:14:40.029Z,50.03
2022-07-26T08:17:09.737Z,49.83
2022-07-26T08:19:41.623Z,50.20
2022-07-26T08:22:11.254Z,50.19
2022-07-26T08:24:39.908Z,50.08
2022-07-26T08:27:08.064Z,50.18
2022-07-26T08:29:36.242Z,50.56
2022-07-26T08:32:05.147Z,50.22
2022-07-26T08:34:33.918Z,49.76
2022-07-26T08:37:18.287Z,49.54
2022-07-26T08:39:48.327Z,49.81
2022-07-26T08:42:22.614Z,49.39
2022-07-26T08:44:52.590Z,49.28
2022-07-26T08:47:35.419Z,49.30
2022-07-26T08:50:07.389Z,49.53
2022-07-26T08:52:35.578Z,49.23
2022-07-26T08:55:03.855Z,49.36
2022-07-26T08:57:32.028Z,49.12
2022-07-26T09:00:22.431Z,49.23
2022-07-26T09:02:52.752Z,49.29
2022-07-26T09:05:28.091Z,48.83
2022-07-26T09:07:57.391Z,49.28
2022-07-26T09:10:26.041Z,49.33
2022-07-26T09:12:58.682Z,49.69
2022-07-26T09:15:28.526Z,49.82
2022-07-26T09:17:58.385Z,49.72
2022-07-26T09:20:32.393Z,50.03
2022-07-26T09:23:02.129Z,50.05
2022-07-26T09:25:39.528Z,49.57
2022-07-26T09:28:29.988Z,49.19
2022-07-26T09:31:04.269Z,48.32
2022-07-26T09:33:47.022Z,48.13
2022-07-26T09:36:16.472Z,48.11
2022-07-26T09:38:49.721Z,47.88
2022-07-26T09:41:19.634Z,47.40
2022-07-26T09:43:53.447Z,47.16
2022-07-26T09:46:26.361Z,46.81
2022-07-26T09:49:12.238Z,47.23
2022-07-26T09:51:46.381Z,47.45
2022-07-26T09:54:34.347Z,47.27
2022-07-26T09:57:02.810Z,46.96
2022-07-26T09:59:31.433Z,46.73
2022-07-26T10:02:00.672Z,46.86
2022-07-26T10:04:29.009Z,47.09
2022-07-26T10:06:58.515Z,47.60
2022-07-26T10:09:34.813Z,47.23
2022-07-26T10:12:07.445Z,47.40
2022-07-26T10:14:51.502Z,47.62
2022-07-26T10:17:31.176Z,48.02
2022-07-26T10:20:02.698Z,48.34
2022-07-26T10:22:36.707Z,48.60
2022-07-26T10:25:20.314Z,48.74
2022-07-26T10:27:53.944Z,49.15
2022-07-26T10:30:31.578Z,49.59
2022-07-26T10:33:06.678Z,49.96
2022-07-26T10:35:34.752Z,49.91
2022-07-26T10:38:27.443Z,50.09
2022-07-26T10:40:58.233Z,51.03
2022-07-26T10:43:40.777Z,51.93
2022-07-26T10:46:16.223Z,52.45
2022-07-26T10:49:04.198Z,52.74
2022-07-26T10:51:35.269Z,53.51
2022-07-26T10:54:09.342Z,53.80
2022-07-26T10:56:38.175Z,54.05
2022-07-26T10:59:07.169Z,54.33
2022-07-26T11:01:43.470Z,54.85
2022-07-26T11:04:22.224Z,55.57
2022-07-26T11:06:50.424Z,55.53
2022-07-26T11:09:20.747Z,55.70
2022-07-26T11:11:52.610Z,55.70
2022-07-26T11:14:20.886Z,55.83
2022-07-26T11:16:50.856Z,55.83
2022-07-26T11:19:21.739Z,55.89
2022-07-26T11:22:00.705Z,55.82
2022-07-26T11:24:29.577Z,56.26
2022-07-26T11:27:04.203Z,56.52
2022-07-26T11:29:38.246Z,57.27
2022-07-26T11:32:21.813Z,57.18
2022-07-26T11:35:05.063Z,57.39
2022-07-26T11:37:33.229Z,57.81
2022-07-26T11:40:01.349Z,58.22
2022-07-26T11:42:32.035Z,58.39
2022-07-26T11:45:00.413Z,58.96
2022-07-26T11:47:28.689Z,59.18
2022-07-26T11:50:18.646Z,59.43
2022-07-26T11:52:50.332Z,59.48
2022-07-26T11:55:31.720Z,59.84
2022-07-26T11:58:05.963Z,59.93
2022-07-26T12:00:34.410Z,60.26
2022-07-26T12:03:02.585Z,60.24
2022-07-26T12:05:33.660Z,60.43
2022-07-26T12:08:05.293Z,60.79
2022-07-26T12:10:33.766Z,60.93
2022-07-26T12:13:08.799Z,61.04
2022-07-26T12:15:52.028Z,61.36
2022-07-26T12:18:28.842Z,62.00
2022-07-26T12:21:05.677Z,62.39
2022-07-26T12:23:49.508Z,62.76
2022-07-26T12:26:20.663Z,62.75
2022-07-26T12:28:48.839Z,63.12
2022-07-26T12:31:34.434Z,63.39
2022-07-26T12:34:02.901Z,63.35
2022-07-26T12:36:34.150Z,63.98
2022-07-26T12:39:02.327Z,63.64
2022-07-26T12:41:35.309Z,63.65
2022-07-26T12:44:05.921Z,63.95
2022-07-26T12:46:36.056Z,63.78
2022-07-26T12:49:05.482Z,63.84
2022-07-26T12:51:34.491Z,63.93
2022-07-26T12:54:05.190Z,64.82
2022-07-26T12:56:33.885Z,64.64
2022-07-26T12:59:02.286Z,64.71
2022-07-26T13:01:31.862Z,64.91
2022-07-26T13:04:00.672Z,65.20
2022-07-26T13:06:29.030Z,65.26
2022-07-26T13:08:57.203Z,65.81
2022-07-26T13:11:25.583Z,65.84
2022-07-26T13:13:53.859Z,66.24
2022-07-26T13:16:22.672Z,66.34
2022-07-26T13:18:51.133Z,66.67
2022-07-26T13:21:19.301Z,66.91
2022-07-26T13:23:47.708Z,67.16
2022-07-26T13:26:15.956Z,67.41
2022-07-26T13:28:44.653Z,67.72
2022-07-26T13:31:18.502Z,68.03
2022-07-26T13:33:47.031Z,68.36
2022-07-26T13:36:15.416Z,68.62
2022-07-26T13:38:43.587Z,69.08
2022-07-26T13:41:11.761Z,69.18
2022-07-26T13:43:40.034Z,69.21
2022-07-26T13:46:08.627Z,69.42
2022-07-26T13:48:36.975Z,69.39
2022-07-26T13:51:05.952Z,69.58
2022-07-26T13:53:34.471Z,69.90
2022-07-26T13:56:03.337Z,69.92
2022-07-26T13:58:32.866Z,69.91
2022-07-26T14:01:02.139Z,70.27
2022-07-26T14:03:35.209Z,70.08
2022-07-26T14:06:03.737Z,70.24
2022-07-26T14:08:31.911Z,70.18
2022-07-26T14:11:00.084Z,70.07
2022-07-26T14:13:28.464Z,69.95
2022-07-26T14:15:56.639Z,70.39
2022-07-26T14:18:24.813Z,70.51
2022-07-26T14:20:52.986Z,70.13
2022-07-26T14:23:21.164Z,70.15
2022-07-26T14:25:49.335Z,70.51
2022-07-26T14:28:17.508Z,70.64
2022-07-26T14:30:45.796Z,70.63
2022-07-26T14:33:13.958Z,70.75
2022-07-26T14:35:44.181Z,70.97
2022-07-26T14:38:13.589Z,70.68
2022-07-26T14:40:43.804Z,70.83
2022-07-26T14:43:11.879Z,71.04
2022-07-26T14:45:41.602Z,70.97
2022-07-26T14:48:09.862Z,71.18
2022-07-26T14:50:59.794Z,71.18
2022-07-26T14:53:26.282Z,71.01
2022-07-26T14:55:54.568Z,71.29
2022-07-26T14:58:22.834Z,71.11
2022-07-26T15:00:52.512Z,71.06
2022-07-26T15:03:20.719Z,70.80
2022-07-26T15:05:48.894Z,70.66
2022-07-26T15:08:17.070Z,70.72
2022-07-26T15:10:45.345Z,70.74
2022-07-26T15:13:15.162Z,71.03
2022-07-26T15:15:43.339Z,71.16
2022-07-26T15:18:11.503Z,71.32
2022-07-26T15:20:42.032Z,71.47
2022-07-26T15:23:11.705Z,71.46
2022-07-26T15:25:40.028Z,71.73
2022-07-26T15:28:08.346Z,71.89
2022-07-26T15:30:37.491Z,71.84
2022-07-26T15:33:05.725Z,71.57
2022-07-26T15:35:35.632Z,71.20
2022-07-26T15:38:04.406Z,70.98
2022-07-26T15:40:33.029Z,70.86
2022-07-26T15:43:01.281Z,70.62
2022-07-26T15:45:30.131Z,70.57
2022-07-26T15:48:14.617Z,70.43
2022-07-26T15:50:45.850Z,70.31
2022-07-26T15:53:15.942Z,70.27
2022-07-26T15:55:44.116Z,70.28
2022-07-26T15:58:13.523Z,70.42
2022-07-26T16:00:42.906Z,70.64
2022-07-26T16:03:12.121Z,70.79
2022-07-26T16:05:40.396Z,70.50
2022-07-26T16:08:08.570Z,70.31
2022-07-26T16:10:37.051Z,70.42
2022-07-26T16:13:05.650Z,70.48
2022-07-26T16:15:33.807Z,70.39
2022-07-26T16:18:06.268Z,70.24
2022-07-26T16:20:36.241Z,70.06
2022-07-26T16:23:04.374Z,69.95
2022-07-26T16:25:32.545Z,69.85
2022-07-26T16:28:00.926Z,69.72
2022-07-26T16:30:29.112Z,69.59
2022-07-26T16:32:57.273Z,69.63
2022-07-26T16:35:25.550Z,69.57
2022-07-26T16:37:53.667Z,69.60
2022-07-26T16:40:21.902Z,69.59
2022-07-26T16:42:50.172Z,69.42
2022-07-26T16:45:18.550Z,69.26
2022-07-26T16:47:47.051Z,69.13
2022-07-26T16:50:15.206Z,68.98
2022-07-26T16:52:55.621Z,69.11
2022-07-26T16:55:23.842Z,69.16
2022-07-26T16:57:52.018Z,69.21
2022-07-26T17:00:22.448Z,69.11
2022-07-26T17:02:51.233Z,68.93
2022-07-26T17:05:19.408Z,68.99
2022-07-26T17:07:47.578Z,69.04
2022-07-26T17:10:15.753Z,69.16
2022-07-26T17:12:44.160Z,69.17
2022-07-26T17:15:13.638Z,69.49
2022-07-26T17:17:45.693Z,69.70
2022-07-26T17:20:17.255Z,69.94
2022-07-26T17:22:45.428Z,70.18
2022-07-26T17:25:13.604Z,70.41
2022-07-26T17:27:41.880Z,70.71
2022-07-26T17:30:10.927Z,70.90
2022-07-26T17:32:39.268Z,70.90
2022-07-26T17:35:08.891Z,70.91
2022-07-26T17:37:37.239Z,71.03
2022-07-26T17:40:08.108Z,71.37
2022-07-26T17:42:37.344Z,71.48
2022-07-26T17:45:07.344Z,71.76
2022-07-26T17:47:35.461Z,71.77
2022-07-26T17:50:34.113Z,71.68
2022-07-26T17:52:54.650Z,71.82
2022-07-26T17:55:22.828Z,71.81
2022-07-26T17:57:51.914Z,71.83
2022-07-26T18:00:22.041Z,71.85
2022-07-26T18:02:50.311Z,71.77
2022-07-26T18:05:19.765Z,71.78
2022-07-26T18:07:48.092Z,71.69
2022-07-26T18:10:16.374Z,71.83
2022-07-26T18:12:44.649Z,71.78
2022-07-26T18:15:13.025Z,71.68
2022-07-26T18:17:41.730Z,71.82
2022-07-26T18:20:10.763Z,71.79
2022-07-26T18:22:39.387Z,71.97
2022-07-26T18:25:08.347Z,72.00
2022-07-26T18:27:36.866Z,71.99
2022-07-26T18:30:07.304Z,72.00
2022-07-26T18:32:35.573Z,72.01
2022-07-26T18:35:04.080Z,72.06
2022-07-26T18:37:32.327Z,72.00
2022-07-26T18:40:00.500Z,71.86
2022-07-26T18:42:28.671Z,72.05
2022-07-26T18:44:56.846Z,72.14
2022-07-26T18:47:25.022Z,72.33
2022-07-26T18:49:53.199Z,72.42
2022-07-26T18:52:28.825Z,72.43
2022-07-26T18:55:07.567Z,72.21
2022-07-26T18:57:37.480Z,72.24
2022-07-26T19:00:18.350Z,72.40
2022-07-26T19:02:47.627Z,72.49
2022-07-26T19:05:16.698Z,72.33
2022-07-26T19:07:46.252Z,72.43
2022-07-26T19:10:14.733Z,72.49
2022-07-26T19:12:45.570Z,72.72
2022-07-26T19:15:17.092Z,72.78
2022-07-26T19:17:45.371Z,72.87
2022-07-26T19:20:13.884Z,72.79
2022-07-26T19:22:44.818Z,72.82
2022-07-26T19:25:16.379Z,72.90
2022-07-26T19:27:44.956Z,72.96
2022-07-26T19:30:13.852Z,73.08
2022-07-26T19:32:42.021Z,73.26
2022-07-26T19:35:10.400Z,73.10
2022-07-26T19:37:38.573Z,73.09
2022-07-26T19:40:07.658Z,73.19
2022-07-26T19:42:35.846Z,73.22
2022-07-26T19:45:04.455Z,73.17
2022-07-26T19:47:32.703Z,73.10
2022-07-26T19:50:02.212Z,73.25
2022-07-26T19:52:30.383Z,73.22
2022-07-26T19:54:58.966Z,73.20
2022-07-26T19:57:27.141Z,73.44
2022-07-26T19:59:56.543Z,73.45
2022-07-26T20:02:24.934Z,73.50
2022-07-26T20:04:53.198Z,73.58
2022-07-26T20:07:21.576Z,73.65
2022-07-26T20:09:51.081Z,73.78
2022-07-26T20:12:21.921Z,73.92
2022-07-26T20:14:50.195Z,74.01
2022-07-26T20:17:18.413Z,73.98
2022-07-26T20:19:46.652Z,73.97
2022-07-26T20:22:14.920Z,74.07
2022-07-26T20:24:43.094Z,74.19
2022-07-26T20:27:11.268Z,74.36
2022-07-26T20:29:39.442Z,74.59
2022-07-26T20:32:07.925Z,74.51
2022-07-26T20:34:36.098Z,74.62
2022-07-26T20:37:04.272Z,74.60
2022-07-26T20:39:32.549Z,74.68
2022-07-26T20:42:01.444Z,74.74
2022-07-26T20:44:29.715Z,74.85
2022-07-26T20:46:57.992Z,74.88
2022-07-26T20:49:26.243Z,74.91
2022-07-26T20:51:54.656Z,74.83
2022-07-26T20:54:23.023Z,74.90
2022-07-26T20:56:51.203Z,74.81
2022-07-26T20:59:19.579Z,74.88
2022-07-26T21:01:47.866Z,75.06
2022-07-26T21:04:16.236Z,75.05
2022-07-26T21:06:44.509Z,74.85
2022-07-26T21:09:13.243Z,74.87
2022-07-26T21:11:41.676Z,75.09
2022-07-26T21:14:09.794Z,75.16
2022-07-26T21:16:38.329Z,75.26
2022-07-26T21:19:06.534Z,75.33
2022-07-26T21:21:36.627Z,75.31
2022-07-26T21:24:06.582Z,75.39
2022-07-26T21:26:35.125Z,75.63
2022-07-26T21:29:04.093Z,75.56
2022-07-26T21:31:32.295Z,75.43
2022-07-26T21:34:00.500Z,75.27
2022-07-26T21:36:28.844Z,75.37
2022-07-26T21:38:57.018Z,75.46
2022-07-26T21:41:25.238Z,75.50
2022-07-26T21:43:53.471Z,75.56
2022-07-26T21:46:21.744Z,75.31
2022-07-26T21:48:50.112Z,75.28
2022-07-26T21:51:18.708Z,75.38
2022-07-26T21:53:47.290Z,75.39
2022-07-26T21:56:15.566Z,75.35
2022-07-26T21:58:43.739Z,75.35
2022-07-26T22:01:12.953Z,75.41
2022-07-26T22:03:42.857Z,75.36
2022-07-26T22:06:11.231Z,75.37
2022-07-26T22:08:40.331Z,75.26
2022-07-26T22:11:08.707Z,75.23
2022-07-26T22:13:37.979Z,75.35
2022-07-26T22:16:07.195Z,75.10
2022-07-26T22:18:35.483Z,74.99
2022-07-26T22:21:04.239Z,75.01
2022-07-26T22:23:32.750Z,75.20
2022-07-26T22:26:03.391Z,75.09
2022-07-26T22:28:33.706Z,74.96
2022-07-26T22:31:02.030Z,75.04
2022-07-26T22:33:30.368Z,75.14
2022-07-26T22:35:58.535Z,75.10
2022-07-26T22:38:26.811Z,74.88
2022-07-26T22:40:54.986Z,74.90
2022-07-26T22:43:23.160Z,74.87
2022-07-26T22:45:51.689Z,74.83
2022-07-26T22:48:20.224Z,74.79
2022-07-26T22:50:48.398Z,74.77
2022-07-26T22:53:16.778Z,74.74
2022-07-26T22:55:44.953Z,74.73
2022-07-26T22:58:13.534Z,74.73
2022-07-26T23:00:41.786Z,74.54
2022-07-26T23:03:19.762Z,74.68
2022-07-26T23:05:50.330Z,74.78
2022-07-26T23:08:44.351Z,74.71
2022-07-26T23:11:07.173Z,74.66
2022-07-26T23:13:35.346Z,74.82
2022-07-26T23:16:03.854Z,74.83
2022-07-26T23:18:33.811Z,74.73
2022-07-26T23:21:02.330Z,74.84
2022-07-26T23:23:32.656Z,75.04
2022-07-26T23:26:01.446Z,75.03
2022-07-26T23:28:36.669Z,75.09
2022-07-26T23:31:08.718Z,74.90
2022-07-26T23:33:53.326Z,74.88
2022-07-26T23:36:27.929Z,75.14
2022-07-26T23:38:59.174Z,75.02
2022-07-26T23:41:28.404Z,75.01
2022-07-26T23:43:56.856Z,75.12
2022-07-26T23:46:25.914Z,75.07
2022-07-26T23:48:54.707Z,74.98
2022-07-26T23:51:25.679Z,74.87
2022-07-26T23:53:54.053Z,74.92
2022-07-26T23:56:22.534Z,75.06
2022-07-26T23:58:50.913Z,75.09
